createdAt,value
2016-02-22T00:01:39.070Z,993.43
2016-02-22T00:04:52.109Z,993.43
2016-02-22T00:08:05.216Z,993.51
2016-02-22T00:11:16.053Z,993.61
2016-02-22T00:14:26.826Z,993.53
2016-02-22T00:17:41.980Z,993.45
2016-02-22T00:20:46.441Z,993.53
2016-02-22T00:23:57.293Z,993.49
2016-02-22T00:27:08.179Z,993.55
2016-02-22T00:30:18.921Z,993.1
2016-02-22T00:33:36.132Z,993.35
2016-02-22T00:36:40.750Z,993.33
2016-02-22T00:39:54.008Z,993.35
2016-02-22T00:43:04.706Z,993.49
2016-02-22T00:46:18.073Z,993.35
2016-02-22T00:49:35.238Z,993.33
2016-02-22T00:52:38.605Z,993.41
2016-02-22T00:55:52.832Z,993.31
2016-02-22T00:59:06.154Z,993.43
2016-02-22T01:02:19.475Z,993.49
2016-02-22T01:05:34.343Z,993.41
2016-02-22T01:08:38.711Z,993.26
2016-02-22T01:11:51.281Z,993.35
2016-02-22T01:15:04.605Z,993.31
2016-02-22T01:18:17.941Z,993.2
2016-02-22T01:21:34.933Z,993.31
2016-02-22T01:24:39.410Z,993.26
2016-02-22T01:27:49.668Z,993.18
2016-02-22T01:30:59.692Z,992.97
2016-02-22T01:34:12.656Z,993.29
2016-02-22T01:37:25.523Z,993.18
2016-02-22T01:40:38.922Z,993.24
2016-02-22T01:43:52.148Z,993.24
2016-02-22T01:47:02.344Z,993.04
2016-02-22T01:50:15.589Z,992.93
2016-02-22T01:53:32.894Z,993.12
2016-02-22T01:56:41.340Z,993.16
2016-02-22T01:59:44.613Z,993.22
2016-02-22T02:02:58.996Z,993.18
2016-02-22T02:06:09.023Z,992.99
2016-02-22T02:09:22.109Z,993.22
2016-02-22T02:12:39.367Z,993.16
2016-02-22T02:15:43.719Z,992.97
2016-02-22T02:18:57.039Z,993.06
2016-02-22T02:22:09.863Z,993.1
2016-02-22T02:25:22.949Z,992.78
2016-02-22T02:28:40.613Z,992.99
2016-02-22T02:31:44.981Z,992.86
2016-02-22T02:34:57.989Z,992.93
2016-02-22T02:38:10.265Z,992.93
2016-02-22T02:41:22.664Z,992.95
2016-02-22T02:44:36.734Z,992.84
2016-02-22T02:47:41.164Z,-305.73
2016-02-22T02:50:53.344Z,-305.73
2016-02-22T02:54:13.526Z,-305.73
2016-02-22T02:57:40.394Z,-305.73
2016-02-22T03:00:53.887Z,-305.73
2016-02-22T03:04:13.773Z,992.7
2016-02-22T03:07:26.984Z,992.76
2016-02-22T03:10:40.054Z,992.8
2016-02-22T03:13:53.547Z,992.82
2016-02-22T03:17:06.791Z,992.62
2016-02-22T03:20:17.081Z,992.72
2016-02-22T03:23:28.027Z,992.64
2016-02-22T03:26:41.113Z,992.6
2016-02-22T03:29:54.105Z,992.64
2016-02-22T03:33:05.770Z,992.76
2016-02-22T03:36:15.749Z,992.66
2016-02-22T03:39:26.320Z,992.82
2016-02-22T03:42:39.468Z,992.76
2016-02-22T03:45:52.555Z,992.66
2016-02-22T03:49:03.594Z,992.82
2016-02-22T03:52:16.714Z,992.86
2016-02-22T03:55:27.628Z,992.66
2016-02-22T03:58:40.558Z,992.8
2016-02-22T04:01:51.191Z,992.91
2016-02-22T04:05:04.402Z,992.82
2016-02-22T04:08:17.585Z,992.66
2016-02-22T04:11:34.671Z,992.82
2016-02-22T04:14:39.117Z,992.74
2016-02-22T04:17:48.719Z,992.88
2016-02-22T04:21:02.055Z,992.62
2016-02-22T04:24:15.331Z,992.78
2016-02-22T04:27:26.839Z,992.78
2016-02-22T04:30:40.144Z,992.66
2016-02-22T04:33:53.465Z,992.6
2016-02-22T04:37:06.692Z,992.66
2016-02-22T04:40:17.984Z,992.58
2016-02-22T04:43:34.539Z,992.46
2016-02-22T04:46:38.984Z,992.56
2016-02-22T04:49:52.212Z,992.3
2016-02-22T04:53:05.391Z,992.72
2016-02-22T04:56:15.808Z,992.28
2016-02-22T04:59:28.019Z,992.46
2016-02-22T05:02:40.887Z,992.32
2016-02-22T05:05:50.787Z,992.62
2016-02-22T05:09:03.733Z,992.68
2016-02-22T05:12:16.884Z,992.54
2016-02-22T05:15:33.720Z,992.66
2016-02-22T05:18:38.228Z,992.66
2016-02-22T05:21:47.940Z,992.68
2016-02-22T05:25:00.964Z,992.62
2016-02-22T05:28:14.116Z,992.52
2016-02-22T05:31:27.201Z,992.54
2016-02-22T05:34:40.459Z,992.64
2016-02-22T05:37:51.467Z,992.52
2016-02-22T05:41:04.506Z,992.66
2016-02-22T05:44:14.548Z,992.6
2016-02-22T05:47:27.025Z,992.54
2016-02-22T05:50:40.205Z,992.58
2016-02-22T05:53:53.619Z,992.38
2016-02-22T05:57:06.816Z,992.44
2016-02-22T06:00:19.873Z,992.44
2016-02-22T06:03:33.522Z,992.46
2016-02-22T06:06:41.936Z,992.58
2016-02-22T06:09:46.268Z,992.32
2016-02-22T06:12:59.206Z,992.5
2016-02-22T06:16:12.388Z,992.54
2016-02-22T06:19:23.508Z,992.58
2016-02-22T06:22:40.621Z,992.52
2016-02-22T06:25:45.032Z,992.72
2016-02-22T06:28:55.413Z,992.7
2016-02-22T06:32:05.108Z,993.06
2016-02-22T06:35:16.117Z,993.49
2016-02-22T06:38:33.078Z,993.63
2016-02-22T06:41:41.321Z,993.67
2016-02-22T06:44:45.563Z,993.83
2016-02-22T06:47:58.571Z,993.89
2016-02-22T06:51:11.597Z,993.89
2016-02-22T06:54:22.308Z,994.05
2016-02-22T06:57:39.363Z,994.01
2016-02-22T07:00:43.622Z,994.05
2016-02-22T07:03:54.177Z,994.21
2016-02-22T07:07:04.951Z,994.17
2016-02-22T07:10:18.007Z,994.19
2016-02-22T07:13:28.062Z,994.19
2016-02-22T07:16:38.603Z,994.31
2016-02-22T07:19:51.626Z,994.35
2016-02-22T07:23:04.774Z,994.45
2016-02-22T07:26:18.005Z,994.51
2016-02-22T07:29:33.121Z,994.41
2016-02-22T07:32:41.316Z,994.55
2016-02-22T07:35:45.529Z,994.65
2016-02-22T07:38:56.974Z,994.63
2016-02-22T07:42:07.420Z,994.7
2016-02-22T07:45:20.602Z,994.68
2016-02-22T07:48:37.548Z,994.82
2016-02-22T07:51:41.822Z,994.86
2016-02-22T07:54:53.955Z,994.88
2016-02-22T07:58:07.853Z,994.98
2016-02-22T08:01:18.270Z,995.14
2016-02-22T08:04:35.402Z,995.16
2016-02-22T08:07:39.629Z,995.24
2016-02-22T08:10:52.498Z,995.28
2016-02-22T08:14:05.443Z,995.42
2016-02-22T08:17:18.313Z,995.64
2016-02-22T08:20:32.618Z,995.64
2016-02-22T08:23:40.829Z,995.72
2016-02-22T08:26:44.962Z,995.72
2016-02-22T08:29:54.783Z,996.06
2016-02-22T08:33:04.947Z,995.96
2016-02-22T08:36:17.818Z,996.1
2016-02-22T08:39:34.872Z,996.26
2016-02-22T08:42:38.896Z,996.2
2016-02-22T08:45:50.654Z,996.28
2016-02-22T08:49:00.959Z,996.34
2016-02-22T08:52:11.390Z,996.44
2016-02-22T08:55:24.555Z,996.46
2016-02-22T08:58:41.502Z,996.61
2016-02-22T09:01:45.760Z,996.77
2016-02-22T09:04:58.689Z,996.55
2016-02-22T09:08:11.682Z,996.71
2016-02-22T09:11:24.787Z,996.65
2016-02-22T09:14:41.748Z,996.47
2016-02-22T09:17:45.990Z,996.85
2016-02-22T09:20:58.920Z,996.71
2016-02-22T09:24:12.037Z,996.71
2016-02-22T09:27:24.861Z,996.99
2016-02-22T09:30:41.822Z,996.81
2016-02-22T09:33:46.002Z,996.93
2016-02-22T09:36:58.916Z,996.95
2016-02-22T09:40:10.237Z,997.15
2016-02-22T09:43:23.716Z,997.15
2016-02-22T09:46:40.771Z,997.07
2016-02-22T09:49:44.982Z,997.15
2016-02-22T09:52:57.648Z,997.23
2016-02-22T09:56:08.842Z,997.23
2016-02-22T09:59:21.884Z,997.27
2016-02-22T10:02:35.814Z,997.33
2016-02-22T10:05:40.432Z,997.27
2016-02-22T10:08:53.346Z,997.39
2016-02-22T10:12:06.494Z,997.37
2016-02-22T10:15:19.584Z,997.35
2016-02-22T10:18:33.654Z,997.41
2016-02-22T10:21:41.693Z,997.59
2016-02-22T10:24:45.873Z,997.43
2016-02-22T10:27:57.022Z,997.57
2016-02-22T10:31:10.264Z,997.59
2016-02-22T10:34:23.260Z,997.59
2016-02-22T10:37:40.346Z,997.57
2016-02-22T10:40:44.479Z,997.47
2016-02-22T10:43:56.862Z,997.53
2016-02-22T10:47:07.198Z,997.63
2016-02-22T10:50:17.646Z,997.77
2016-02-22T10:53:27.764Z,997.65
2016-02-22T10:56:41.740Z,997.75
2016-02-22T10:59:45.953Z,997.75
2016-02-22T11:02:58.850Z,997.57
2016-02-22T11:06:07.390Z,997.73
2016-02-22T11:09:21.666Z,997.77
2016-02-22T11:12:36.440Z,997.79
2016-02-22T11:15:40.948Z,997.75
2016-02-22T11:18:53.285Z,997.69
2016-02-22T11:22:06.417Z,997.67
2016-02-22T11:25:17.772Z,997.75
2016-02-22T11:28:27.889Z,997.77
2016-02-22T11:31:40.601Z,997.87
2016-02-22T11:34:51.327Z,997.85
2016-02-22T11:38:04.304Z,997.81
2016-02-22T11:41:16.721Z,997.85
2016-02-22T11:44:33.636Z,997.71
2016-02-22T11:47:41.831Z,997.71
2016-02-22T11:50:46.011Z,997.85
2016-02-22T11:53:58.957Z,997.81
2016-02-22T11:57:09.230Z,997.9
2016-02-22T12:00:21.147Z,997.85
2016-02-22T12:03:34.295Z,997.85
2016-02-22T12:06:42.508Z,997.94
2016-02-22T12:09:46.765Z,997.88
2016-02-22T12:12:57.586Z,997.94
2016-02-22T12:16:10.250Z,997.92
2016-02-22T12:19:23.214Z,997.88
2016-02-22T12:22:39.987Z,998.1
2016-02-22T12:25:44.043Z,998.04
2016-02-22T12:28:55.567Z,997.92
2016-02-22T12:32:08.605Z,997.94
2016-02-22T12:35:19.241Z,998.04
2016-02-22T12:38:33.172Z,998.17
2016-02-22T12:41:41.148Z,998.12
2016-02-22T12:44:45.218Z,998.17
2016-02-22T12:47:58.555Z,998.1
2016-02-22T12:51:09.172Z,998.25
2016-02-22T12:54:18.423Z,998.19
2016-02-22T12:57:32.993Z,998.21
2016-02-22T13:00:40.891Z,998.26
2016-02-22T13:03:45.072Z,998.28
2016-02-22T13:06:57.642Z,998.36
2016-02-22T13:10:10.353Z,998.38
2016-02-22T13:13:23.330Z,998.44
2016-02-22T13:16:37.794Z,998.58
2016-02-22T13:19:41.974Z,998.46
2016-02-22T13:22:52.388Z,998.5
2016-02-22T13:26:02.662Z,998.56
2016-02-22T13:29:13.045Z,998.42
2016-02-22T13:32:26.616Z,998.4
2016-02-22T13:35:39.080Z,998.44
2016-02-22T13:38:52.244Z,998.46
2016-02-22T13:42:05.267Z,998.34
2016-02-22T13:45:18.135Z,998.32
2016-02-22T13:48:34.366Z,998.38
2016-02-22T13:51:42.248Z,998.42
2016-02-22T13:54:46.394Z,998.46
2016-02-22T13:57:59.051Z,998.44
2016-02-22T14:01:10.652Z,998.52
2016-02-22T14:04:24.349Z,998.58
2016-02-22T14:07:39.203Z,998.56
2016-02-22T14:10:43.227Z,998.42
2016-02-22T14:13:55.173Z,998.52
2016-02-22T14:17:08.009Z,998.62
2016-02-22T14:20:18.688Z,998.66
2016-02-22T14:23:32.978Z,998.82
2016-02-22T14:26:41.080Z,998.52
2016-02-22T14:29:45.138Z,998.62
2016-02-22T14:32:58.036Z,998.7
2016-02-22T14:36:08.159Z,998.6
2016-02-22T14:39:20.995Z,998.48
2016-02-22T14:42:38.128Z,998.54
2016-02-22T14:45:42.089Z,998.6
2016-02-22T14:48:52.757Z,998.58
2016-02-22T14:52:05.561Z,998.52
2016-02-22T14:55:16.757Z,998.5
2016-02-22T14:58:33.500Z,998.58
2016-02-22T15:01:41.555Z,998.62
2016-02-22T15:04:45.578Z,998.58
2016-02-22T15:07:55.289Z,998.52
2016-02-22T15:11:05.738Z,998.64
2016-02-22T15:14:15.793Z,998.78
2016-02-22T15:17:27.928Z,998.72
2016-02-22T15:20:39.535Z,998.82
2016-02-22T15:23:52.386Z,998.72
2016-02-22T15:27:05.180Z,998.76
2016-02-22T15:30:17.744Z,998.86
2016-02-22T15:33:34.470Z,998.82
2016-02-22T15:36:42.431Z,998.9
2016-02-22T15:39:46.282Z,998.88
2016-02-22T15:42:59.039Z,998.8
2016-02-22T15:46:09.127Z,998.84
2016-02-22T15:49:21.964Z,998.84
2016-02-22T15:52:38.738Z,998.88
2016-02-22T15:55:42.683Z,998.82
2016-02-22T15:58:55.535Z,998.84
2016-02-22T16:02:08.262Z,998.92
2016-02-22T16:05:21.216Z,998.88
2016-02-22T16:08:35.615Z,998.88
2016-02-22T16:11:39.420Z,998.84
2016-02-22T16:14:52.006Z,998.96
2016-02-22T16:18:01.951Z,998.98
2016-02-22T16:21:11.447Z,998.9
2016-02-22T16:24:21.409Z,999.02
2016-02-22T16:27:37.588Z,998.94
2016-02-22T16:30:41.549Z,998.82
2016-02-22T16:33:53.167Z,998.94
2016-02-22T16:37:04.768Z,998.96
2016-02-22T16:40:17.701Z,998.96
2016-02-22T16:43:34.443Z,999.02
2016-02-22T16:46:42.342Z,999
2016-02-22T16:49:46.132Z,999.08
2016-02-22T16:52:58.390Z,999.02
2016-02-22T16:56:11.178Z,999.16
2016-02-22T16:59:22.769Z,999.16
2016-02-22T17:02:40.448Z,999.32
2016-02-22T17:05:44.363Z,999.26
2016-02-22T17:08:54.979Z,999.22
2016-02-22T17:12:06.051Z,999.36
2016-02-22T17:15:15.495Z,999.3
2016-02-22T17:18:25.195Z,999.24
2016-02-22T17:21:40.467Z,999.26
2016-02-22T17:24:44.461Z,999.34
2016-02-22T17:27:55.546Z,999.32
2016-02-22T17:31:07.352Z,999.36
2016-02-22T17:34:20.127Z,999.38
2016-02-22T17:37:36.824Z,999.4
2016-02-22T17:40:40.753Z,999.36
2016-02-22T17:43:50.777Z,999.34
2016-02-22T17:47:03.457Z,999.3
2016-02-22T17:50:16.293Z,999.56
2016-02-22T17:53:25.772Z,999.44
2016-02-22T17:56:42.515Z,999.32
2016-02-22T17:59:46.383Z,999.32
2016-02-22T18:02:56.703Z,999.42
2016-02-22T18:06:09.446Z,999.36
2016-02-22T18:09:22.035Z,999.32
2016-02-22T18:12:38.761Z,999.32
2016-02-22T18:15:42.644Z,999.26
2016-02-22T18:18:54.199Z,999.2
2016-02-22T18:22:05.504Z,999.28
2016-02-22T18:25:18.106Z,999.24
2016-02-22T18:28:34.820Z,999.24
2016-02-22T18:31:42.703Z,999.26
2016-02-22T18:34:46.586Z,999.2
2016-02-22T18:37:57.828Z,999.18
2016-02-22T18:41:09.493Z,999.14
2016-02-22T18:44:23.176Z,999.22
2016-02-22T18:47:37.809Z,999.22
2016-02-22T18:50:41.692Z,999.12
2016-02-22T18:53:54.387Z,999.06
2016-02-22T18:57:04.004Z,999.34
2016-02-22T19:00:15.060Z,999.1
2016-02-22T19:03:27.867Z,999.22
2016-02-22T19:06:39.375Z,999.26
2016-02-22T19:09:53.149Z,999.4
2016-02-22T19:13:04.877Z,999.3
2016-02-22T19:16:17.274Z,999.4
2016-02-22T19:19:28.676Z,999.54
2016-02-22T19:22:41.074Z,999.5
2016-02-22T19:25:53.740Z,999.56
2016-02-22T19:29:06.559Z,999.62
2016-02-22T19:32:19.287Z,999.52
2016-02-22T19:35:35.828Z,999.5
2016-02-22T19:38:39.681Z,999.56
2016-02-22T19:41:49.813Z,999.69
2016-02-22T19:44:58.883Z,999.69
2016-02-22T19:48:12.907Z,999.79
2016-02-22T19:51:25.685Z,999.69
2016-02-22T19:54:39.692Z,999.71
2016-02-22T19:57:43.576Z,999.66
2016-02-22T20:00:55.520Z,999.75
2016-02-22T20:04:08.028Z,999.81
2016-02-22T20:07:17.897Z,999.75
2016-02-22T20:10:34.453Z,999.66
2016-02-22T20:13:42.216Z,999.69
2016-02-22T20:16:46.116Z,999.64
2016-02-22T20:19:58.749Z,999.62
2016-02-22T20:23:11.304Z,999.69
2016-02-22T20:26:23.781Z,999.77
2016-02-22T20:29:40.667Z,999.75
2016-02-22T20:32:44.549Z,999.71
2016-02-22T20:35:55.182Z,999.69
2016-02-22T20:39:08.096Z,999.75
2016-02-22T20:42:20.745Z,999.83
2016-02-22T20:45:37.459Z,999.83
2016-02-22T20:48:41.154Z,999.75
2016-02-22T20:51:53.959Z,999.69
2016-02-22T20:55:06.092Z,999.85
2016-02-22T20:58:16.273Z,999.79
2016-02-22T21:01:26.281Z,999.75
2016-02-22T21:04:42.853Z,999.87
2016-02-22T21:07:46.718Z,999.89
2016-02-22T21:10:59.570Z,999.99
2016-02-22T21:14:11.282Z,1000.05
2016-02-22T21:17:21.071Z,1000.01
2016-02-22T21:20:37.753Z,1000.05
2016-02-22T21:23:41.543Z,1000.09
2016-02-22T21:26:52.192Z,999.89
2016-02-22T21:30:04.762Z,1000.09
2016-02-22T21:33:15.036Z,1000.25
2016-02-22T21:36:27.278Z,1000.03
2016-02-22T21:39:39.742Z,1000.17
2016-02-22T21:42:52.422Z,1000.09
2016-02-22T21:46:05.352Z,1000.23
2016-02-22T21:49:16.626Z,1000.17
2016-02-22T21:52:29.199Z,1000.29
2016-02-22T21:55:41.644Z,1000.41
2016-02-22T21:58:53.871Z,1000.43
2016-02-22T22:02:07.864Z,1000.35
2016-02-22T22:05:20.325Z,1000.33
2016-02-22T22:08:36.929Z,1000.37
2016-02-22T22:11:40.671Z,1000.45
2016-02-22T22:14:51.430Z,1000.39
2016-02-22T22:18:04.126Z,1000.37
2016-02-22T22:21:16.747Z,1000.47
2016-02-22T22:24:33.476Z,1000.29
2016-02-22T22:27:41.344Z,1000.47
2016-02-22T22:30:45.163Z,1000.43
2016-02-22T22:33:55.328Z,1000.37
2016-02-22T22:37:07.352Z,1000.43
2016-02-22T22:40:18.001Z,1000.31
2016-02-22T22:43:34.606Z,1000.43
2016-02-22T22:46:42.316Z,1000.43
2016-02-22T22:49:46.137Z,1000.47
2016-02-22T22:52:57.223Z,1000.41
2016-02-22T22:56:09.638Z,1000.39
2016-02-22T22:59:21.974Z,1000.47
2016-02-22T23:02:38.625Z,1000.49
2016-02-22T23:05:42.493Z,1000.57
2016-02-22T23:08:55.126Z,1000.43
2016-02-22T23:12:05.743Z,1000.63
2016-02-22T23:15:15.626Z,1000.55
2016-02-22T23:18:28.431Z,1000.67
2016-02-22T23:21:41.020Z,1000.67
2016-02-22T23:24:53.591Z,1000.73
2016-02-22T23:28:02.583Z,1000.69
2016-02-22T23:31:15.357Z,1000.59
2016-02-22T23:34:24.958Z,1000.47
2016-02-22T23:37:41.626Z,1000.61
2016-02-22T23:40:45.462Z,1000.55
2016-02-22T23:43:58.173Z,1000.59
2016-02-22T23:47:07.868Z,1000.69
2016-02-22T23:50:19.673Z,1000.61
2016-02-22T23:53:34.622Z,1000.67
2016-02-22T23:56:42.302Z,1000.77
2016-02-22T23:59:46.185Z,1000.73
